createdAt,value
2019-04-13T00:00:04.487Z,0.00
2019-04-13T00:01:57.381Z,0.00
2019-04-13T00:02:57.388Z,0.00
2019-04-13T00:04:50.291Z,0.00
2019-04-13T00:05:50.297Z,0.00
2019-04-13T00:07:43.192Z,0.00
2019-04-13T00:08:43.199Z,0.00
2019-04-13T00:10:36.083Z,0.00
2019-04-13T00:11:36.091Z,0.00
2019-04-13T00:13:28.991Z,0.00
2019-04-13T00:14:28.991Z,0.00
2019-04-13T00:16:21.883Z,0.00
2019-04-13T00:17:21.888Z,0.00
2019-04-13T00:19:14.788Z,0.00
2019-04-13T00:20:14.791Z,0.00
2019-04-13T00:22:07.684Z,0.00
2019-04-13T00:23:07.693Z,0.00
2019-04-13T00:25:00.590Z,0.00
2019-04-13T00:26:00.589Z,0.00
2019-04-13T00:27:53.491Z,0.00
2019-04-13T00:28:53.493Z,0.00
2019-04-13T00:30:46.390Z,0.00
2019-04-13T00:31:46.389Z,0.00
2019-04-13T00:33:39.292Z,0.00
2019-04-13T00:34:41.638Z,0.00
2019-04-13T00:36:32.179Z,0.00
2019-04-13T00:37:32.187Z,0.00
2019-04-13T00:39:25.084Z,0.00
2019-04-13T00:40:25.084Z,0.00
2019-04-13T00:42:17.980Z,0.00
2019-04-13T00:43:17.985Z,0.00
2019-04-13T00:45:10.885Z,0.00
2019-04-13T00:46:10.946Z,0.00
2019-04-13T00:48:03.783Z,0.00
2019-04-13T00:49:03.785Z,0.00
2019-04-13T00:50:56.675Z,0.00
2019-04-13T00:51:56.682Z,0.00
2019-04-13T00:53:49.582Z,0.00
2019-04-13T00:54:49.581Z,0.00
2019-04-13T00:56:42.473Z,0.00
2019-04-13T00:57:42.479Z,0.00
2019-04-13T00:59:35.377Z,0.00
2019-04-13T01:00:35.377Z,0.00
2019-04-13T01:02:28.271Z,0.00
2019-04-13T01:03:28.276Z,0.00
2019-04-13T01:05:21.179Z,0.00
2019-04-13T01:06:21.175Z,0.00
2019-04-13T01:08:14.074Z,0.00
2019-04-13T01:09:14.074Z,0.00
2019-04-13T01:11:06.967Z,0.00
2019-04-13T01:12:06.970Z,0.00
2019-04-13T01:13:59.871Z,0.00
2019-04-13T01:14:59.868Z,0.00
2019-04-13T01:16:52.763Z,0.00
2019-04-13T01:17:52.771Z,0.00
2019-04-13T01:19:45.672Z,0.00
2019-04-13T01:20:45.670Z,0.00
2019-04-13T01:22:38.563Z,0.00
2019-04-13T01:23:38.568Z,0.00
2019-04-13T01:25:31.470Z,0.00
2019-04-13T01:26:31.467Z,0.00
2019-04-13T01:28:24.367Z,0.00
2019-04-13T01:29:24.366Z,0.00
2019-04-13T01:31:17.263Z,0.00
2019-04-13T01:32:17.267Z,0.00
2019-04-13T01:34:10.165Z,0.00
2019-04-13T01:35:10.162Z,0.00
2019-04-13T01:37:03.056Z,0.00
2019-04-13T01:38:03.062Z,0.00
2019-04-13T01:39:55.964Z,0.00
2019-04-13T01:40:55.961Z,0.00
2019-04-13T01:42:48.858Z,0.00
2019-04-13T01:43:48.863Z,0.00
2019-04-13T01:45:41.762Z,0.00
2019-04-13T01:46:41.760Z,0.00
2019-04-13T01:48:34.659Z,0.00
2019-04-13T01:49:34.657Z,0.00
2019-04-13T01:51:27.548Z,0.00
2019-04-13T01:52:27.554Z,0.00
2019-04-13T01:54:20.453Z,0.00
2019-04-13T01:55:20.450Z,0.00
2019-04-13T01:57:13.346Z,0.00
2019-04-13T01:58:13.351Z,0.00
2019-04-13T02:00:06.742Z,0.00
2019-04-13T02:01:06.742Z,0.00
2019-04-13T02:02:59.637Z,0.00
2019-04-13T02:03:59.641Z,0.00
2019-04-13T02:05:52.541Z,0.00
2019-04-13T02:06:52.538Z,0.00
2019-04-13T02:08:45.438Z,0.00
2019-04-13T02:09:45.437Z,0.00
2019-04-13T02:11:38.330Z,0.00
2019-04-13T02:12:38.336Z,0.00
2019-04-13T02:14:31.235Z,0.00
2019-04-13T02:15:31.235Z,0.00
2019-04-13T02:17:24.128Z,0.00
2019-04-13T02:18:24.134Z,0.00
2019-04-13T02:20:17.035Z,0.00
2019-04-13T02:21:17.034Z,0.00
2019-04-13T02:23:09.930Z,0.00
2019-04-13T02:24:09.931Z,0.00
2019-04-13T02:26:02.833Z,0.00
2019-04-13T02:27:02.830Z,0.00
2019-04-13T02:28:55.726Z,0.00
2019-04-13T02:29:55.727Z,0.00
2019-04-13T02:31:48.623Z,0.00
2019-04-13T02:32:48.622Z,0.00
2019-04-13T02:34:41.524Z,0.00
2019-04-13T02:35:41.520Z,0.00
2019-04-13T02:37:34.413Z,0.00
2019-04-13T02:38:34.416Z,0.00
2019-04-13T02:40:27.314Z,0.00
2019-04-13T02:41:27.334Z,0.00
2019-04-13T02:43:20.207Z,0.00
2019-04-13T02:44:20.213Z,0.00
2019-04-13T02:46:13.110Z,0.00
2019-04-13T02:47:13.110Z,0.00
2019-04-13T02:49:06.012Z,0.00
2019-04-13T02:50:06.009Z,0.00
2019-04-13T02:51:58.902Z,0.00
2019-04-13T02:52:58.919Z,0.00
2019-04-13T02:54:51.804Z,0.00
2019-04-13T02:55:51.803Z,0.00
2019-04-13T02:57:44.697Z,0.00
2019-04-13T02:58:44.702Z,0.00
2019-04-13T03:00:37.600Z,0.00
2019-04-13T03:01:37.598Z,0.00
2019-04-13T03:03:30.493Z,0.00
2019-04-13T03:04:30.494Z,0.00
2019-04-13T03:06:23.394Z,0.00
2019-04-13T03:07:23.391Z,0.00
2019-04-13T03:09:16.292Z,0.00
2019-04-13T03:10:16.290Z,0.00
2019-04-13T03:12:09.185Z,0.00
2019-04-13T03:13:09.189Z,0.00
2019-04-13T03:15:02.085Z,0.00
2019-04-13T03:16:02.084Z,0.00
2019-04-13T03:17:54.976Z,0.00
2019-04-13T03:18:54.981Z,0.00
2019-04-13T03:20:47.878Z,0.00
2019-04-13T03:21:47.878Z,0.00
2019-04-13T03:23:40.768Z,0.00
2019-04-13T03:24:40.772Z,0.00
2019-04-13T03:26:33.675Z,0.00
2019-04-13T03:27:33.668Z,0.00
2019-04-13T03:29:26.583Z,0.00
2019-04-13T03:30:26.575Z,0.00
2019-04-13T03:32:19.462Z,0.00
2019-04-13T03:33:19.468Z,0.00
2019-04-13T03:35:12.371Z,0.00
2019-04-13T03:36:12.361Z,0.00
2019-04-13T03:38:05.257Z,0.00
2019-04-13T03:39:05.258Z,0.00
2019-04-13T03:40:58.159Z,0.00
2019-04-13T03:41:58.155Z,0.00
2019-04-13T03:43:51.074Z,0.00
2019-04-13T03:44:51.074Z,0.00
2019-04-13T03:46:43.969Z,0.00
2019-04-13T03:47:43.968Z,0.00
2019-04-13T03:49:36.868Z,0.00
2019-04-13T03:50:36.867Z,0.00
2019-04-13T03:52:29.781Z,0.00
2019-04-13T03:53:29.763Z,0.00
2019-04-13T03:55:22.661Z,0.00
2019-04-13T03:56:22.661Z,0.00
2019-04-13T03:58:15.555Z,0.00
2019-04-13T03:59:15.558Z,0.00
2019-04-13T04:01:08.461Z,0.00
2019-04-13T04:02:08.458Z,0.00
2019-04-13T04:04:01.354Z,0.00
2019-04-13T04:05:01.358Z,0.00
2019-04-13T04:06:54.263Z,0.00
2019-04-13T04:07:54.257Z,0.00
2019-04-13T04:09:47.156Z,0.00
2019-04-13T04:10:47.154Z,0.00
2019-04-13T04:12:40.047Z,0.00
2019-04-13T04:13:40.053Z,0.00
2019-04-13T04:15:32.951Z,0.00
2019-04-13T04:16:32.952Z,0.00
2019-04-13T04:18:25.844Z,0.00
2019-04-13T04:19:25.853Z,0.00
2019-04-13T04:21:18.750Z,0.00
2019-04-13T04:22:18.750Z,0.00
2019-04-13T04:24:11.640Z,0.00
2019-04-13T04:25:11.644Z,0.00
2019-04-13T04:27:04.543Z,0.00
2019-04-13T04:28:04.545Z,0.00
2019-04-13T04:29:57.447Z,0.00
2019-04-13T04:30:57.440Z,0.00
2019-04-13T04:32:50.336Z,5.63
2019-04-13T04:33:50.341Z,5.63
2019-04-13T04:35:43.238Z,5.63
2019-04-13T04:36:43.236Z,5.63
2019-04-13T04:38:36.128Z,5.63
2019-04-13T04:39:36.133Z,5.63
2019-04-13T04:41:29.031Z,5.63
2019-04-13T04:42:29.031Z,11.25
2019-04-13T04:44:21.926Z,11.25
2019-04-13T04:45:21.926Z,11.25
2019-04-13T04:47:14.825Z,11.25
2019-04-13T04:48:14.825Z,11.25
2019-04-13T04:50:07.723Z,11.25
2019-04-13T04:51:11.244Z,16.88
2019-04-13T04:53:00.617Z,16.88
2019-04-13T04:54:00.619Z,22.50
2019-04-13T04:55:53.520Z,22.50
2019-04-13T04:56:53.520Z,28.13
2019-04-13T04:58:46.410Z,22.50
2019-04-13T04:59:46.423Z,22.50
2019-04-13T05:01:39.316Z,28.13
2019-04-13T05:02:39.316Z,22.50
2019-04-13T05:04:32.210Z,22.50
2019-04-13T05:05:32.214Z,16.88
2019-04-13T05:07:25.116Z,16.88
2019-04-13T05:08:25.118Z,16.88
2019-04-13T05:10:18.016Z,22.50
2019-04-13T05:11:18.015Z,28.13
2019-04-13T05:13:10.908Z,28.13
2019-04-13T05:14:10.913Z,28.13
2019-04-13T05:16:03.812Z,28.13
2019-04-13T05:17:03.811Z,28.13
2019-04-13T05:18:56.710Z,33.75
2019-04-13T05:19:56.711Z,33.75
2019-04-13T05:21:50.108Z,33.75
2019-04-13T05:22:50.107Z,33.75
2019-04-13T05:24:42.999Z,28.13
2019-04-13T05:25:43.005Z,28.13
2019-04-13T05:27:35.905Z,33.75
2019-04-13T05:28:35.906Z,33.75
2019-04-13T05:30:28.806Z,33.75
2019-04-13T05:31:28.805Z,39.38
2019-04-13T05:33:21.698Z,39.38
2019-04-13T05:34:21.704Z,39.38
2019-04-13T05:36:14.602Z,56.25
2019-04-13T05:37:14.601Z,61.88
2019-04-13T05:39:07.494Z,56.25
2019-04-13T05:40:07.501Z,61.88
2019-04-13T05:42:00.400Z,67.50
2019-04-13T05:43:00.446Z,73.13
2019-04-13T05:44:53.293Z,67.50
2019-04-13T05:45:53.298Z,67.50
2019-04-13T05:47:46.200Z,67.50
2019-04-13T05:48:46.197Z,67.50
2019-04-13T05:50:39.099Z,90.00
2019-04-13T05:51:39.099Z,101.25
2019-04-13T05:53:31.988Z,84.38
2019-04-13T05:54:31.994Z,90.00
2019-04-13T05:56:24.907Z,67.50
2019-04-13T05:57:24.907Z,67.50
2019-04-13T05:59:17.803Z,73.13
2019-04-13T06:00:17.805Z,73.13
2019-04-13T06:02:10.756Z,78.75
2019-04-13T06:03:10.708Z,84.38
2019-04-13T06:05:03.641Z,90.00
2019-04-13T06:06:03.607Z,95.63
2019-04-13T06:07:56.999Z,84.38
2019-04-13T06:08:57.001Z,101.25
2019-04-13T06:10:50.101Z,123.75
2019-04-13T06:11:49.898Z,146.25
2019-04-13T06:13:42.840Z,106.88
2019-04-13T06:14:42.797Z,129.38
2019-04-13T06:16:37.527Z,168.75
2019-04-13T06:17:35.694Z,180.00
2019-04-13T06:19:28.589Z,225.00
2019-04-13T06:20:28.596Z,219.38
2019-04-13T06:22:21.493Z,230.63
2019-04-13T06:23:21.495Z,264.38
2019-04-13T06:25:14.386Z,213.75
2019-04-13T06:26:14.391Z,253.13
2019-04-13T06:28:07.294Z,292.50
2019-04-13T06:29:07.292Z,286.88
2019-04-13T06:31:00.834Z,230.63
2019-04-13T06:32:00.193Z,225.00
2019-04-13T06:33:53.086Z,196.88
2019-04-13T06:34:53.091Z,185.63
2019-04-13T06:36:45.994Z,146.25
2019-04-13T06:37:48.311Z,180.00
2019-04-13T06:39:38.887Z,151.88
2019-04-13T06:40:40.878Z,135.00
2019-04-13T06:42:31.793Z,112.50
2019-04-13T06:43:31.795Z,112.50
2019-04-13T06:45:24.692Z,106.88
2019-04-13T06:46:24.694Z,101.25
2019-04-13T06:48:17.602Z,112.50
2019-04-13T06:49:19.718Z,135.00
2019-04-13T06:51:10.487Z,157.50
2019-04-13T06:52:10.497Z,151.88
2019-04-13T06:54:03.391Z,174.38
2019-04-13T06:55:03.391Z,219.38
2019-04-13T06:56:56.291Z,180.00
2019-04-13T06:57:56.296Z,225.00
2019-04-13T06:59:49.677Z,219.38
2019-04-13T07:00:49.688Z,230.63
2019-04-13T07:02:42.655Z,286.88
2019-04-13T07:03:42.585Z,275.63
2019-04-13T07:05:35.475Z,281.25
2019-04-13T07:06:46.963Z,236.25
2019-04-13T07:08:37.881Z,163.13
2019-04-13T07:09:39.818Z,151.88
2019-04-13T07:11:21.504Z,151.88
2019-04-13T07:12:21.293Z,151.88
2019-04-13T07:14:14.384Z,123.75
2019-04-13T07:15:14.280Z,106.88
2019-04-13T07:17:07.181Z,101.25
2019-04-13T07:18:07.210Z,118.13
2019-04-13T07:20:00.076Z,129.38
2019-04-13T07:21:00.092Z,174.38
2019-04-13T07:22:54.143Z,202.50
2019-04-13T07:23:52.994Z,236.25
2019-04-13T07:25:45.877Z,433.13
2019-04-13T07:26:45.886Z,438.75
2019-04-13T07:28:38.871Z,545.63
2019-04-13T07:29:38.868Z,500.63
2019-04-13T07:31:32.007Z,416.25
2019-04-13T07:32:32.017Z,348.75
2019-04-13T07:34:24.693Z,264.38
2019-04-13T07:35:24.682Z,286.88
2019-04-13T07:37:17.584Z,337.50
2019-04-13T07:38:17.587Z,354.38
2019-04-13T07:40:10.482Z,354.38
2019-04-13T07:41:10.490Z,343.13
2019-04-13T07:43:03.391Z,298.13
2019-04-13T07:44:03.393Z,292.50
2019-04-13T07:45:56.788Z,275.63
2019-04-13T07:46:56.790Z,303.75
2019-04-13T07:48:49.711Z,236.25
2019-04-13T07:49:49.696Z,253.13
2019-04-13T07:51:42.588Z,258.75
2019-04-13T07:52:42.597Z,230.63
2019-04-13T07:54:35.495Z,230.63
2019-04-13T07:55:36.443Z,202.50
2019-04-13T07:57:28.401Z,208.13
2019-04-13T07:58:28.400Z,185.63
2019-04-13T08:00:21.305Z,236.25
2019-04-13T08:01:23.449Z,371.25
2019-04-13T08:03:14.212Z,461.25
2019-04-13T08:04:14.211Z,388.13
2019-04-13T08:06:07.106Z,534.38
2019-04-13T08:07:07.113Z,691.88
2019-04-13T08:09:00.014Z,618.75
2019-04-13T08:10:00.019Z,646.88
2019-04-13T08:11:52.916Z,641.25
2019-04-13T08:12:52.921Z,624.38
2019-04-13T08:14:45.824Z,551.25
2019-04-13T08:15:45.825Z,534.38
2019-04-13T08:17:38.733Z,556.88
2019-04-13T08:18:41.217Z,624.38
2019-04-13T08:20:34.120Z,675.00
2019-04-13T08:21:33.340Z,646.88
2019-04-13T08:23:26.929Z,596.25
2019-04-13T08:24:24.545Z,568.13
2019-04-13T08:26:17.447Z,495.00
2019-04-13T08:27:17.455Z,472.50
2019-04-13T08:29:10.359Z,421.88
2019-04-13T08:30:10.362Z,461.25
2019-04-13T08:32:03.269Z,528.75
2019-04-13T08:33:03.271Z,579.38
2019-04-13T08:34:57.527Z,556.88
2019-04-13T08:35:58.224Z,562.50
2019-04-13T08:37:55.263Z,506.25
2019-04-13T08:38:58.561Z,562.50
2019-04-13T08:40:46.234Z,573.75
2019-04-13T08:41:41.992Z,556.88
2019-04-13T08:43:34.913Z,489.38
2019-04-13T08:44:36.722Z,455.63
2019-04-13T08:46:28.293Z,461.25
2019-04-13T08:47:27.813Z,444.38
2019-04-13T08:49:20.721Z,427.50
2019-04-13T08:50:20.715Z,376.88
2019-04-13T08:52:13.612Z,399.38
2019-04-13T08:53:13.623Z,421.88
2019-04-13T08:55:06.525Z,371.25
2019-04-13T08:56:06.528Z,382.50
2019-04-13T08:57:59.489Z,438.75
2019-04-13T08:58:59.978Z,511.88
2019-04-13T09:00:52.391Z,478.13
2019-04-13T09:01:52.401Z,472.50
2019-04-13T09:03:45.307Z,489.38
2019-04-13T09:04:45.310Z,500.63
2019-04-13T09:06:38.209Z,500.63
2019-04-13T09:07:39.224Z,495.00
2019-04-13T09:09:35.476Z,461.25
2019-04-13T09:10:31.756Z,388.13
2019-04-13T09:12:24.678Z,399.38
2019-04-13T09:13:25.078Z,410.63
2019-04-13T09:15:17.017Z,421.88
2019-04-13T09:16:16.939Z,405.00
2019-04-13T09:18:09.850Z,506.25
2019-04-13T09:19:12.432Z,517.50
2019-04-13T09:21:05.819Z,483.75
2019-04-13T09:22:02.759Z,506.25
2019-04-13T09:23:55.660Z,472.50
2019-04-13T09:24:55.663Z,489.38
2019-04-13T09:26:48.560Z,500.63
2019-04-13T09:27:48.568Z,478.13
2019-04-13T09:29:41.488Z,433.13
2019-04-13T09:30:41.479Z,495.00
2019-04-13T09:32:34.380Z,624.38
2019-04-13T09:33:35.420Z,630.00
2019-04-13T09:35:27.296Z,585.00
2019-04-13T09:36:28.948Z,528.75
2019-04-13T09:38:20.202Z,444.38
2019-04-13T09:39:21.850Z,455.63
2019-04-13T09:41:13.110Z,556.88
2019-04-13T09:42:13.118Z,523.13
2019-04-13T09:44:06.035Z,551.25
2019-04-13T09:45:06.043Z,573.75
2019-04-13T09:46:58.926Z,466.88
2019-04-13T09:47:58.934Z,461.25
2019-04-13T09:49:51.850Z,590.63
2019-04-13T09:50:51.846Z,641.25
2019-04-13T09:52:44.746Z,534.38
2019-04-13T09:53:44.754Z,478.13
2019-04-13T09:55:37.657Z,298.13
2019-04-13T09:56:37.853Z,270.00
2019-04-13T09:58:35.025Z,298.13
2019-04-13T09:59:30.568Z,354.38
2019-04-13T10:01:23.469Z,478.13
2019-04-13T10:02:26.081Z,495.00
2019-04-13T10:04:16.383Z,410.63
2019-04-13T10:05:16.386Z,376.88
2019-04-13T10:07:09.289Z,253.13
2019-04-13T10:08:09.296Z,247.50
2019-04-13T10:10:02.203Z,247.50
2019-04-13T10:11:02.205Z,281.25
2019-04-13T10:12:55.107Z,326.25
2019-04-13T10:13:55.112Z,360.00
2019-04-13T10:15:48.682Z,393.75
2019-04-13T10:16:50.561Z,399.38
2019-04-13T10:18:40.934Z,421.88
2019-04-13T10:19:40.931Z,438.75
2019-04-13T10:21:33.827Z,421.88
2019-04-13T10:22:33.835Z,388.13
2019-04-13T10:24:26.743Z,343.13
2019-04-13T10:25:26.744Z,337.50
2019-04-13T10:27:20.017Z,343.13
2019-04-13T10:28:19.652Z,343.13
2019-04-13T10:30:12.558Z,360.00
2019-04-13T10:31:12.561Z,354.38
2019-04-13T10:33:05.459Z,365.63
2019-04-13T10:34:05.466Z,393.75
2019-04-13T10:35:59.358Z,461.25
2019-04-13T10:36:59.364Z,500.63
2019-04-13T10:38:52.265Z,511.88
2019-04-13T10:39:52.267Z,506.25
2019-04-13T10:41:45.166Z,495.00
2019-04-13T10:42:45.178Z,500.63
2019-04-13T10:44:41.747Z,511.88
2019-04-13T10:45:38.082Z,506.25
2019-04-13T10:47:31.036Z,511.88
2019-04-13T10:48:31.000Z,511.88
2019-04-13T10:50:23.892Z,528.75
2019-04-13T10:51:23.897Z,540.00
2019-04-13T10:53:16.796Z,562.50
2019-04-13T10:54:16.806Z,562.50
2019-04-13T10:56:09.712Z,601.88
2019-04-13T10:57:09.716Z,624.38
2019-04-13T10:59:02.634Z,663.75
2019-04-13T11:00:02.629Z,663.75
2019-04-13T11:01:55.532Z,585.00
2019-04-13T11:02:55.539Z,562.50
2019-04-13T11:04:48.445Z,511.88
2019-04-13T11:05:48.449Z,489.38
2019-04-13T11:07:41.353Z,483.75
2019-04-13T11:08:41.360Z,478.13
2019-04-13T11:10:34.822Z,466.88
2019-04-13T11:11:34.270Z,461.25
2019-04-13T11:13:27.168Z,596.25
2019-04-13T11:14:27.178Z,624.38
2019-04-13T11:16:20.085Z,613.13
2019-04-13T11:17:20.092Z,523.13
2019-04-13T11:19:12.991Z,523.13
2019-04-13T11:20:14.654Z,523.13
2019-04-13T11:22:05.969Z,495.00
2019-04-13T11:23:05.916Z,506.25
2019-04-13T11:24:58.818Z,545.63
2019-04-13T11:26:01.008Z,556.88
2019-04-13T11:27:51.724Z,618.75
2019-04-13T11:28:51.731Z,652.50
2019-04-13T11:30:44.641Z,613.13
2019-04-13T11:31:44.643Z,556.88
2019-04-13T11:33:37.546Z,618.75
2019-04-13T11:34:37.554Z,618.75
2019-04-13T11:36:30.458Z,500.63
2019-04-13T11:37:32.488Z,416.25
2019-04-13T11:39:33.423Z,315.00
2019-04-13T11:40:23.379Z,298.13
2019-04-13T11:42:16.285Z,258.75
2019-04-13T11:43:16.289Z,196.88
2019-04-13T11:45:09.195Z,168.75
2019-04-13T11:46:09.199Z,191.25
2019-04-13T11:48:02.100Z,230.63
2019-04-13T11:49:02.110Z,253.13
2019-04-13T11:50:59.657Z,202.50
2019-04-13T11:51:55.017Z,202.50
2019-04-13T11:53:47.920Z,399.38
2019-04-13T11:54:47.930Z,461.25
2019-04-13T11:56:40.836Z,478.13
2019-04-13T11:57:40.839Z,489.38
2019-04-13T11:59:33.735Z,500.63
2019-04-13T12:00:33.746Z,478.13
2019-04-13T12:02:26.888Z,461.25
2019-04-13T12:03:26.650Z,466.88
2019-04-13T12:05:19.557Z,523.13
2019-04-13T12:06:19.554Z,517.50
2019-04-13T12:08:12.458Z,472.50
2019-04-13T12:09:12.463Z,466.88
2019-04-13T12:11:05.375Z,472.50
2019-04-13T12:12:05.371Z,483.75
2019-04-13T12:14:00.313Z,528.75
2019-04-13T12:14:58.279Z,562.50
2019-04-13T12:16:51.182Z,613.13
2019-04-13T12:17:52.085Z,641.25
2019-04-13T12:19:44.088Z,545.63
2019-04-13T12:20:44.134Z,478.13
2019-04-13T12:22:37.001Z,433.13
2019-04-13T12:23:37.002Z,427.50
2019-04-13T12:25:29.911Z,433.13
2019-04-13T12:26:29.916Z,438.75
2019-04-13T12:28:22.814Z,483.75
2019-04-13T12:29:22.824Z,562.50
2019-04-13T12:31:15.732Z,646.88
2019-04-13T12:32:15.737Z,697.50
2019-04-13T12:34:08.631Z,652.50
2019-04-13T12:35:11.501Z,562.50
2019-04-13T12:37:03.708Z,461.25
2019-04-13T12:38:03.640Z,517.50
2019-04-13T12:40:02.728Z,427.50
2019-04-13T12:40:54.468Z,331.88
2019-04-13T12:42:47.382Z,253.13
2019-04-13T12:43:47.389Z,241.88
2019-04-13T12:45:40.299Z,168.75
2019-04-13T12:46:40.302Z,135.00
2019-04-13T12:48:33.696Z,95.63
2019-04-13T12:49:33.707Z,90.00
2019-04-13T12:51:26.614Z,95.63
2019-04-13T12:52:26.617Z,106.88
2019-04-13T12:54:19.520Z,185.63
2019-04-13T12:55:20.083Z,275.63
2019-04-13T12:57:15.834Z,416.25
2019-04-13T12:58:12.433Z,433.13
2019-04-13T13:00:08.015Z,495.00
2019-04-13T13:01:05.338Z,511.88
2019-04-13T13:02:58.240Z,528.75
2019-04-13T13:03:58.300Z,511.88
2019-04-13T13:05:51.172Z,455.63
2019-04-13T13:06:51.150Z,438.75
2019-04-13T13:08:44.053Z,405.00
2019-04-13T13:09:44.057Z,410.63
2019-04-13T13:11:36.963Z,466.88
2019-04-13T13:12:36.967Z,433.13
2019-04-13T13:14:32.523Z,354.38
2019-04-13T13:15:29.876Z,315.00
2019-04-13T13:17:22.776Z,286.88
2019-04-13T13:18:26.127Z,286.88
2019-04-13T13:20:17.059Z,270.00
2019-04-13T13:21:15.684Z,270.00
2019-04-13T13:23:09.958Z,270.00
2019-04-13T13:24:08.589Z,275.63
2019-04-13T13:26:01.492Z,281.25
2019-04-13T13:27:02.763Z,303.75
2019-04-13T13:28:54.394Z,331.88
2019-04-13T13:29:54.402Z,315.00
2019-04-13T13:31:47.304Z,360.00
2019-04-13T13:32:47.307Z,444.38
2019-04-13T13:34:40.206Z,461.25
2019-04-13T13:35:40.214Z,354.38
2019-04-13T13:37:33.120Z,331.88
2019-04-13T13:38:33.122Z,416.25
2019-04-13T13:40:31.034Z,489.38
2019-04-13T13:41:26.029Z,461.25
2019-04-13T13:43:18.940Z,444.38
2019-04-13T13:44:19.911Z,450.00
2019-04-13T13:46:13.852Z,326.25
2019-04-13T13:47:11.848Z,303.75
2019-04-13T13:49:04.746Z,348.75
2019-04-13T13:50:04.755Z,337.50
2019-04-13T13:52:01.316Z,331.88
2019-04-13T13:52:57.670Z,371.25
2019-04-13T13:54:50.565Z,326.25
2019-04-13T13:55:50.573Z,331.88
2019-04-13T13:57:43.481Z,360.00
2019-04-13T13:58:43.484Z,382.50
2019-04-13T14:00:36.384Z,534.38
2019-04-13T14:01:36.397Z,500.63
2019-04-13T14:03:29.301Z,517.50
2019-04-13T14:04:29.303Z,506.25
2019-04-13T14:06:22.208Z,326.25
2019-04-13T14:07:22.212Z,208.13
2019-04-13T14:09:15.117Z,140.63
2019-04-13T14:10:15.134Z,140.63
2019-04-13T14:12:09.341Z,129.38
2019-04-13T14:13:08.029Z,118.13
2019-04-13T14:15:00.927Z,78.75
2019-04-13T14:16:00.938Z,84.38
2019-04-13T14:17:55.550Z,196.88
2019-04-13T14:18:57.197Z,281.25
2019-04-13T14:20:46.751Z,337.50
2019-04-13T14:21:46.761Z,331.88
2019-04-13T14:23:39.658Z,331.88
2019-04-13T14:24:39.665Z,309.38
2019-04-13T14:26:32.570Z,286.88
2019-04-13T14:27:32.574Z,281.25
2019-04-13T14:29:25.473Z,298.13
2019-04-13T14:30:25.482Z,320.63
2019-04-13T14:32:18.385Z,405.00
2019-04-13T14:33:18.391Z,455.63
2019-04-13T14:35:11.285Z,607.50
2019-04-13T14:36:11.293Z,675.00
2019-04-13T14:38:04.193Z,658.13
2019-04-13T14:39:04.198Z,438.75
2019-04-13T14:40:57.103Z,376.88
2019-04-13T14:41:57.116Z,382.50
2019-04-13T14:43:52.843Z,320.63
2019-04-13T14:44:52.410Z,258.75
2019-04-13T14:46:43.141Z,225.00
2019-04-13T14:47:43.105Z,208.13
2019-04-13T14:49:36.003Z,208.13
2019-04-13T14:50:36.197Z,208.13
2019-04-13T14:52:29.408Z,208.13
2019-04-13T14:53:29.415Z,213.75
2019-04-13T14:55:22.311Z,225.00
2019-04-13T14:56:22.320Z,230.63
2019-04-13T14:58:15.223Z,247.50
2019-04-13T14:59:16.777Z,258.75
2019-04-13T15:01:08.129Z,286.88
2019-04-13T15:02:08.243Z,303.75
2019-04-13T15:04:01.040Z,365.63
2019-04-13T15:05:01.043Z,421.88
2019-04-13T15:06:54.874Z,534.38
2019-04-13T15:07:53.963Z,551.25
2019-04-13T15:09:46.851Z,573.75
2019-04-13T15:10:46.858Z,562.50
2019-04-13T15:12:39.763Z,506.25
2019-04-13T15:13:40.485Z,461.25
2019-04-13T15:15:36.539Z,275.63
2019-04-13T15:16:33.726Z,185.63
2019-04-13T15:18:26.049Z,106.88
2019-04-13T15:19:34.493Z,95.63
2019-04-13T15:21:19.974Z,67.50
2019-04-13T15:22:19.772Z,61.88
2019-04-13T15:24:13.496Z,28.13
2019-04-13T15:25:11.856Z,28.13
2019-04-13T15:27:07.446Z,28.13
2019-04-13T15:28:04.321Z,28.13
2019-04-13T15:29:57.223Z,45.00
2019-04-13T15:31:01.041Z,61.88
2019-04-13T15:32:50.128Z,90.00
2019-04-13T15:33:54.277Z,90.00
2019-04-13T15:35:46.285Z,101.25
2019-04-13T15:36:44.212Z,106.88
2019-04-13T15:38:35.944Z,118.13
2019-04-13T15:39:40.113Z,106.88
2019-04-13T15:41:36.235Z,78.75
2019-04-13T15:42:41.359Z,67.50
2019-04-13T15:44:22.055Z,61.88
2019-04-13T15:45:22.509Z,50.63
2019-04-13T15:47:16.915Z,50.63
2019-04-13T15:48:14.663Z,67.50
2019-04-13T15:50:07.570Z,90.00
2019-04-13T15:51:07.600Z,101.25
2019-04-13T15:53:01.757Z,140.63
2019-04-13T15:54:02.604Z,157.50
2019-04-13T15:55:54.603Z,163.13
2019-04-13T15:56:53.369Z,163.13
2019-04-13T15:58:46.699Z,163.13
2019-04-13T15:59:46.269Z,168.75
2019-04-13T16:01:41.264Z,168.75
2019-04-13T16:02:41.127Z,168.75
2019-04-13T16:04:33.066Z,168.75
2019-04-13T16:05:33.051Z,163.13
2019-04-13T16:07:25.784Z,163.13
2019-04-13T16:08:26.421Z,163.13
2019-04-13T16:10:18.417Z,163.13
2019-04-13T16:11:18.733Z,163.13
2019-04-13T16:13:11.395Z,163.13
2019-04-13T16:14:11.611Z,157.50
2019-04-13T16:16:05.162Z,157.50
2019-04-13T16:17:05.447Z,157.50
2019-04-13T16:18:58.246Z,157.50
2019-04-13T16:19:57.204Z,157.50
2019-04-13T16:21:50.101Z,157.50
2019-04-13T16:22:50.107Z,157.50
2019-04-13T16:24:43.921Z,157.50
2019-04-13T16:25:43.021Z,157.50
2019-04-13T16:27:35.913Z,157.50
2019-04-13T16:28:37.210Z,157.50
2019-04-13T16:30:28.819Z,157.50
2019-04-13T16:31:29.037Z,157.50
2019-04-13T16:33:21.738Z,151.88
2019-04-13T16:34:21.731Z,151.88
2019-04-13T16:36:16.269Z,151.88
2019-04-13T16:37:14.628Z,146.25
2019-04-13T16:39:14.772Z,146.25
2019-04-13T16:40:08.565Z,146.25
2019-04-13T16:42:05.769Z,140.63
2019-04-13T16:43:01.531Z,140.63
2019-04-13T16:44:53.961Z,140.63
2019-04-13T16:45:53.359Z,135.00
2019-04-13T16:47:47.366Z,135.00
2019-04-13T16:48:46.508Z,135.00
2019-04-13T16:50:39.172Z,135.00
2019-04-13T16:51:39.268Z,135.00
2019-04-13T16:53:32.986Z,135.00
2019-04-13T16:54:44.082Z,140.63
2019-04-13T16:56:25.236Z,146.25
2019-04-13T16:57:24.985Z,146.25
2019-04-13T16:59:18.380Z,151.88
2019-04-13T17:00:18.718Z,151.88
2019-04-13T17:02:11.282Z,157.50
2019-04-13T17:03:11.864Z,157.50
2019-04-13T17:05:05.113Z,174.38
2019-04-13T17:06:04.835Z,185.63
2019-04-13T17:07:57.098Z,191.25
2019-04-13T17:08:57.740Z,185.63
2019-04-13T17:10:50.034Z,168.75
2019-04-13T17:11:50.550Z,151.88
2019-04-13T17:13:43.345Z,129.38
2019-04-13T17:14:43.479Z,118.13
2019-04-13T17:16:36.258Z,90.00
2019-04-13T17:17:36.452Z,78.75
2019-04-13T17:19:28.727Z,61.88
2019-04-13T17:20:28.723Z,56.25
2019-04-13T17:22:21.799Z,45.00
2019-04-13T17:23:21.631Z,33.75
2019-04-13T17:25:16.245Z,22.50
2019-04-13T17:26:15.189Z,22.50
2019-04-13T17:28:14.046Z,16.88
2019-04-13T17:29:09.036Z,16.88
2019-04-13T17:31:01.302Z,22.50
2019-04-13T17:32:02.088Z,22.50
2019-04-13T17:33:54.229Z,16.88
2019-04-13T17:34:54.853Z,16.88
2019-04-13T17:36:47.793Z,16.88
2019-04-13T17:37:48.443Z,16.88
2019-04-13T17:39:41.027Z,16.88
2019-04-13T17:40:41.032Z,16.88
2019-04-13T17:42:39.801Z,22.50
2019-04-13T17:43:34.540Z,22.50
2019-04-13T17:45:28.226Z,33.75
2019-04-13T17:46:28.134Z,33.75
2019-04-13T17:48:20.993Z,33.75
2019-04-13T17:49:19.815Z,33.75
2019-04-13T17:51:12.639Z,33.75
2019-04-13T17:52:13.361Z,33.75
2019-04-13T17:54:06.118Z,39.38
2019-04-13T17:55:06.721Z,39.38
2019-04-13T17:56:59.225Z,33.75
2019-04-13T17:57:58.989Z,33.75
2019-04-13T17:59:51.341Z,33.75
2019-04-13T18:00:51.868Z,28.13
2019-04-13T18:02:44.235Z,28.13
2019-04-13T18:03:44.979Z,22.50
2019-04-13T18:05:37.969Z,22.50
2019-04-13T18:06:37.921Z,22.50
2019-04-13T18:08:40.399Z,16.88
2019-04-13T18:09:30.877Z,16.88
2019-04-13T18:11:23.999Z,11.25
2019-04-13T18:12:24.339Z,11.25
2019-04-13T18:14:16.283Z,11.25
2019-04-13T18:15:16.066Z,5.63
2019-04-13T18:17:09.478Z,5.63
2019-04-13T18:18:10.196Z,5.63
2019-04-13T18:20:03.078Z,5.63
2019-04-13T18:21:03.510Z,5.63